sensor_id;sensor_type;location;lat;lon;timestamp;temperature;humidity
9544;DHT22;30418;51.45933468;7.33152330;2023-04-20T00:00:16;12.90;35.80
9544;DHT22;30418;51.45933468;7.33152330;2023-04-20T00:02:45;12.90;35.80
9544;DHT22;30418;51.45933468;7.33152330;2023-04-20T00:05:14;12.90;35.90
9544;DHT22;30418;51.45933468;7.33152330;2023-04-20T00:07:43;12.90;36.00
9544;DHT22;30418;51.45933468;7.33152330;2023-04-20T00:10:12;12.90;36.10
9544;DHT22;30418;51.45933468;7.33152330;2023-04-20T00:12:41;12.90;36.20
9544;DHT22;30418;51.45933468;7.33152330;2023-04-20T00:15:09;12.90;36.20
9544;DHT22;30418;51.45933468;7.33152330;2023-04-20T00:17:39;12.90;36.40
9544;DHT22;30418;51.45933468;7.33152330;2023-04-20T00:20:10;12.90;36.40
9544;DHT22;30418;51.45933468;7.33152330;2023-04-20T00:22:39;12.90;36.40
9544;DHT22;30418;51.45933468;7.33152330;2023-04-20T00:25:08;12.90;36.40
9544;DHT22;30418;51.45933468;7.33152330;2023-04-20T00:27:37;12.90;36.40
9544;DHT22;30418;51.45933468;7.33152330;2023-04-20T00:30:06;12.80;36.40
9544;DHT22;30418;51.45933468;7.33152330;2023-04-20T00:32:36;12.80;36.40
9544;DHT22;30418;51.45933468;7.33152330;2023-04-20T00:35:08;12.80;36.40
9544;DHT22;30418;51.45933468;7.33152330;2023-04-20T00:37:37;12.80;36.50
9544;DHT22;30418;51.45933468;7.33152330;2023-04-20T00:40:07;12.80;36.60
9544;DHT22;30418;51.45933468;7.33152330;2023-04-20T00:42:36;12.80;36.60
9544;DHT22;30418;51.45933468;7.33152330;2023-04-20T00:45:07;12.80;36.70
9544;DHT22;30418;51.45933468;7.33152330;2023-04-20T00:47:37;12.70;37.20
9544;DHT22;30418;51.45933468;7.33152330;2023-04-20T00:50:09;12.70;36.60
9544;DHT22;30418;51.45933468;7.33152330;2023-04-20T00:52:38;12.70;36.60
9544;DHT22;30418;51.45933468;7.33152330;2023-04-20T00:55:08;12.60;36.60
9544;DHT22;30418;51.45933468;7.33152330;2023-04-20T00:57:37;12.60;36.50
9544;DHT22;30418;51.45933468;7.33152330;2023-04-20T01:00:07;12.60;36.50
9544;DHT22;30418;51.45933468;7.33152330;2023-04-20T01:02:37;12.60;36.50
9544;DHT22;30418;51.45933468;7.33152330;2023-04-20T01:05:08;12.60;36.50
9544;DHT22;30418;51.45933468;7.33152330;2023-04-20T01:07:37;12.60;36.50
9544;DHT22;30418;51.45933468;7.33152330;2023-04-20T01:10:09;12.60;36.50
9544;DHT22;30418;51.45933468;7.33152330;2023-04-20T01:12:39;12.50;36.40
9544;DHT22;30418;51.45933468;7.33152330;2023-04-20T01:15:09;12.50;36.40
9544;DHT22;30418;51.45933468;7.33152330;2023-04-20T01:17:38;12.50;36.50
9544;DHT22;30418;51.45933468;7.33152330;2023-04-20T01:20:10;12.50;36.50
9544;DHT22;30418;51.45933468;7.33152330;2023-04-20T01:22:45;12.50;36.50
9544;DHT22;30418;51.45933468;7.33152330;2023-04-20T01:25:14;12.40;36.40
9544;DHT22;30418;51.45933468;7.33152330;2023-04-20T01:27:43;12.40;36.40
9544;DHT22;30418;51.45933468;7.33152330;2023-04-20T01:30:12;12.40;36.60
9544;DHT22;30418;51.45933468;7.33152330;2023-04-20T01:32:41;12.40;36.60
9544;DHT22;30418;51.45933468;7.33152330;2023-04-20T01:35:10;12.40;36.60
9544;DHT22;30418;51.45933468;7.33152330;2023-04-20T01:37:39;12.30;36.60
9544;DHT22;30418;51.45933468;7.33152330;2023-04-20T01:40:14;12.30;36.60
9544;DHT22;30418;51.45933468;7.33152330;2023-04-20T01:42:42;12.30;36.60
9544;DHT22;30418;51.45933468;7.33152330;2023-04-20T01:45:11;12.30;36.70
9544;DHT22;30418;51.45933468;7.33152330;2023-04-20T01:47:40;12.30;36.80
9544;DHT22;30418;51.45933468;7.33152330;2023-04-20T01:50:09;12.30;36.80
9544;DHT22;30418;51.45933468;7.33152330;2023-04-20T01:52:38;12.30;36.80
9544;DHT22;30418;51.45933468;7.33152330;2023-04-20T01:55:07;12.20;36.80
9544;DHT22;30418;51.45933468;7.33152330;2023-04-20T01:57:38;12.20;36.80
9544;DHT22;30418;51.45933468;7.33152330;2023-04-20T02:00:08;12.20;36.80
9544;DHT22;30418;51.45933468;7.33152330;2023-04-20T02:02:40;12.20;36.90
9544;DHT22;30418;51.45933468;7.33152330;2023-04-20T02:05:09;12.20;36.90
9544;DHT22;30418;51.45933468;7.33152330;2023-04-20T02:07:37;12.20;36.90
9544;DHT22;30418;51.45933468;7.33152330;2023-04-20T02:10:07;12.20;36.90
9544;DHT22;30418;51.45933468;7.33152330;2023-04-20T02:12:36;12.20;37.00
9544;DHT22;30418;51.45933468;7.33152330;2023-04-20T02:15:07;12.20;37.00
9544;DHT22;30418;51.45933468;7.33152330;2023-04-20T02:17:36;12.20;37.10
9544;DHT22;30418;51.45933468;7.33152330;2023-04-20T02:20:06;12.10;37.00
9544;DHT22;30418;51.45933468;7.33152330;2023-04-20T02:22:37;12.10;37.10
9544;DHT22;30418;51.45933468;7.33152330;2023-04-20T02:25:08;12.10;37.10
9544;DHT22;30418;51.45933468;7.33152330;2023-04-20T02:27:38;12.10;37.20
9544;DHT22;30418;51.45933468;7.33152330;2023-04-20T02:30:09;12.10;37.40
9544;DHT22;30418;51.45933468;7.33152330;2023-04-20T02:32:41;12.00;37.40
9544;DHT22;30418;51.45933468;7.33152330;2023-04-20T02:35:10;12.00;37.50
9544;DHT22;30418;51.45933468;7.33152330;2023-04-20T02:37:42;12.00;37.50
9544;DHT22;30418;51.45933468;7.33152330;2023-04-20T02:40:11;12.00;37.70
9544;DHT22;30418;51.45933468;7.33152330;2023-04-20T02:42:40;12.00;37.80
9544;DHT22;30418;51.45933468;7.33152330;2023-04-20T02:45:12;11.90;37.90
9544;DHT22;30418;51.45933468;7.33152330;2023-04-20T02:47:44;11.90;38.10
9544;DHT22;30418;51.45933468;7.33152330;2023-04-20T02:50:14;11.90;38.30
9544;DHT22;30418;51.45933468;7.33152330;2023-04-20T02:53:01;11.90;38.50
9544;DHT22;30418;51.45933468;7.33152330;2023-04-20T02:55:33;11.90;38.50
9544;DHT22;30418;51.45933468;7.33152330;2023-04-20T02:58:10;11.90;38.70
9544;DHT22;30418;51.45933468;7.33152330;2023-04-20T03:01:03;11.90;38.90
9544;DHT22;30418;51.45933468;7.33152330;2023-04-20T03:03:33;11.90;39.10
9544;DHT22;30418;51.45933468;7.33152330;2023-04-20T03:06:04;11.90;39.10
9544;DHT22;30418;51.45933468;7.33152330;2023-04-20T03:08:33;11.90;39.30
9544;DHT22;30418;51.45933468;7.33152330;2023-04-20T03:11:21;11.90;39.50
9544;DHT22;30418;51.45933468;7.33152330;2023-04-20T03:13:49;11.90;39.60
9544;DHT22;30418;51.45933468;7.33152330;2023-04-20T03:16:20;11.90;39.80
9544;DHT22;30418;51.45933468;7.33152330;2023-04-20T03:18:51;11.90;40.00
9544;DHT22;30418;51.45933468;7.33152330;2023-04-20T03:21:20;11.90;40.00
9544;DHT22;30418;51.45933468;7.33152330;2023-04-20T03:23:49;11.90;40.30
9544;DHT22;30418;51.45933468;7.33152330;2023-04-20T03:26:17;11.90;40.40
9544;DHT22;30418;51.45933468;7.33152330;2023-04-20T03:29:13;11.80;40.40
9544;DHT22;30418;51.45933468;7.33152330;2023-04-20T03:31:44;11.80;40.60
9544;DHT22;30418;51.45933468;7.33152330;2023-04-20T03:34:13;11.80;41.00
9544;DHT22;30418;51.45933468;7.33152330;2023-04-20T03:36:43;11.80;41.00
9544;DHT22;30418;51.45933468;7.33152330;2023-04-20T03:39:12;11.80;41.20
9544;DHT22;30418;51.45933468;7.33152330;2023-04-20T03:41:41;11.80;41.40
9544;DHT22;30418;51.45933468;7.33152330;2023-04-20T03:44:10;11.80;41.50
9544;DHT22;30418;51.45933468;7.33152330;2023-04-20T03:46:40;11.80;41.60
9544;DHT22;30418;51.45933468;7.33152330;2023-04-20T03:49:10;11.80;41.90
9544;DHT22;30418;51.45933468;7.33152330;2023-04-20T03:51:39;11.80;42.10
9544;DHT22;30418;51.45933468;7.33152330;2023-04-20T03:54:08;11.80;42.20
9544;DHT22;30418;51.45933468;7.33152330;2023-04-20T03:56:37;11.80;42.50
9544;DHT22;30418;51.45933468;7.33152330;2023-04-20T03:59:06;11.80;42.40
9544;DHT22;30418;51.45933468;7.33152330;2023-04-20T04:01:35;11.80;42.60
9544;DHT22;30418;51.45933468;7.33152330;2023-04-20T04:04:05;11.70;42.70
9544;DHT22;30418;51.45933468;7.33152330;2023-04-20T04:06:36;11.70;42.90
9544;DHT22;30418;51.45933468;7.33152330;2023-04-20T04:09:04;11.70;42.90
9544;DHT22;30418;51.45933468;7.33152330;2023-04-20T04:11:33;11.70;43.00
9544;DHT22;30418;51.45933468;7.33152330;2023-04-20T04:14:01;11.70;43.10
9544;DHT22;30418;51.45933468;7.33152330;2023-04-20T04:16:32;11.70;43.30
9544;DHT22;30418;51.45933468;7.33152330;2023-04-20T04:19:00;11.70;43.30
9544;DHT22;30418;51.45933468;7.33152330;2023-04-20T04:21:29;11.70;43.40
9544;DHT22;30418;51.45933468;7.33152330;2023-04-20T04:24:04;11.70;43.40
9544;DHT22;30418;51.45933468;7.33152330;2023-04-20T04:26:52;11.70;43.50
9544;DHT22;30418;51.45933468;7.33152330;2023-04-20T04:29:23;11.70;44.30
9544;DHT22;30418;51.45933468;7.33152330;2023-04-20T04:31:55;11.70;43.90
9544;DHT22;30418;51.45933468;7.33152330;2023-04-20T04:34:27;11.70;43.90
9544;DHT22;30418;51.45933468;7.33152330;2023-04-20T04:36:57;11.70;44.10
9544;DHT22;30418;51.45933468;7.33152330;2023-04-20T04:39:39;11.70;44.10
9544;DHT22;30418;51.45933468;7.33152330;2023-04-20T04:42:14;11.70;44.50
9544;DHT22;30418;51.45933468;7.33152330;2023-04-20T04:44:44;11.70;44.30
9544;DHT22;30418;51.45933468;7.33152330;2023-04-20T04:47:19;11.70;44.40
9544;DHT22;30418;51.45933468;7.33152330;2023-04-20T04:49:50;11.70;44.50
9544;DHT22;30418;51.45933468;7.33152330;2023-04-20T04:52:18;11.70;44.50
9544;DHT22;30418;51.45933468;7.33152330;2023-04-20T04:54:49;11.70;44.50
9544;DHT22;30418;51.45933468;7.33152330;2023-04-20T04:57:18;11.70;44.60
9544;DHT22;30418;51.45933468;7.33152330;2023-04-20T04:59:47;11.70;44.70
9544;DHT22;30418;51.45933468;7.33152330;2023-04-20T05:02:16;11.70;44.70
9544;DHT22;30418;51.45933468;7.33152330;2023-04-20T05:04:45;11.60;44.70
9544;DHT22;30418;51.45933468;7.33152330;2023-04-20T05:07:14;11.60;44.80
9544;DHT22;30418;51.45933468;7.33152330;2023-04-20T05:09:43;11.70;44.90
9544;DHT22;30418;51.45933468;7.33152330;2023-04-20T05:12:13;11.70;44.90
9544;DHT22;30418;51.45933468;7.33152330;2023-04-20T05:14:41;11.70;45.10
9544;DHT22;30418;51.45933468;7.33152330;2023-04-20T05:17:10;11.60;44.90
9544;DHT22;30418;51.45933468;7.33152330;2023-04-20T05:19:39;11.60;45.00
9544;DHT22;30418;51.45933468;7.33152330;2023-04-20T05:22:07;11.60;45.00
9544;DHT22;30418;51.45933468;7.33152330;2023-04-20T05:24:36;11.60;45.00
9544;DHT22;30418;51.45933468;7.33152330;2023-04-20T05:27:04;11.60;45.10
9544;DHT22;30418;51.45933468;7.33152330;2023-04-20T05:29:35;11.60;45.20
9544;DHT22;30418;51.45933468;7.33152330;2023-04-20T05:32:03;11.60;45.30
9544;DHT22;30418;51.45933468;7.33152330;2023-04-20T05:34:32;11.60;45.40
9544;DHT22;30418;51.45933468;7.33152330;2023-04-20T05:37:03;11.60;45.40
9544;DHT22;30418;51.45933468;7.33152330;2023-04-20T05:39:32;11.60;45.70
9544;DHT22;30418;51.45933468;7.33152330;2023-04-20T05:42:00;11.60;45.80
9544;DHT22;30418;51.45933468;7.33152330;2023-04-20T05:44:29;11.60;46.00
9544;DHT22;30418;51.45933468;7.33152330;2023-04-20T05:46:59;11.60;46.30
9544;DHT22;30418;51.45933468;7.33152330;2023-04-20T05:49:27;11.60;46.50
9544;DHT22;30418;51.45933468;7.33152330;2023-04-20T05:51:56;11.50;46.50
9544;DHT22;30418;51.45933468;7.33152330;2023-04-20T05:54:24;11.50;46.60
9544;DHT22;30418;51.45933468;7.33152330;2023-04-20T05:56:54;11.50;46.70
9544;DHT22;30418;51.45933468;7.33152330;2023-04-20T05:59:23;11.50;47.00
9544;DHT22;30418;51.45933468;7.33152330;2023-04-20T06:01:53;11.40;47.00
9544;DHT22;30418;51.45933468;7.33152330;2023-04-20T06:04:23;11.40;47.20
9544;DHT22;30418;51.45933468;7.33152330;2023-04-20T06:06:53;11.40;47.40
9544;DHT22;30418;51.45933468;7.33152330;2023-04-20T06:09:21;11.40;47.50
9544;DHT22;30418;51.45933468;7.33152330;2023-04-20T06:11:50;11.40;47.70
9544;DHT22;30418;51.45933468;7.33152330;2023-04-20T06:14:18;11.40;47.70
9544;DHT22;30418;51.45933468;7.33152330;2023-04-20T06:16:47;11.40;47.80
9544;DHT22;30418;51.45933468;7.33152330;2023-04-20T06:19:15;11.30;47.70
9544;DHT22;30418;51.45933468;7.33152330;2023-04-20T06:21:45;11.30;47.90
9544;DHT22;30418;51.45933468;7.33152330;2023-04-20T06:24:14;11.30;48.00
9544;DHT22;30418;51.45933468;7.33152330;2023-04-20T06:26:43;11.20;48.00
9544;DHT22;30418;51.45933468;7.33152330;2023-04-20T06:29:11;11.20;48.30
9544;DHT22;30418;51.45933468;7.33152330;2023-04-20T06:31:40;11.20;48.40
9544;DHT22;30418;51.45933468;7.33152330;2023-04-20T06:34:08;11.20;48.50
9544;DHT22;30418;51.45933468;7.33152330;2023-04-20T06:36:41;11.20;48.40
9544;DHT22;30418;51.45933468;7.33152330;2023-04-20T06:39:11;11.20;48.80
9544;DHT22;30418;51.45933468;7.33152330;2023-04-20T06:41:40;11.20;48.70
9544;DHT22;30418;51.45933468;7.33152330;2023-04-20T06:44:08;11.20;48.90
9544;DHT22;30418;51.45933468;7.33152330;2023-04-20T06:46:37;11.20;48.80
9544;DHT22;30418;51.45933468;7.33152330;2023-04-20T06:49:05;11.10;48.80
9544;DHT22;30418;51.45933468;7.33152330;2023-04-20T06:51:34;11.10;49.00
9544;DHT22;30418;51.45933468;7.33152330;2023-04-20T06:54:03;11.10;49.20
9544;DHT22;30418;51.45933468;7.33152330;2023-04-20T06:56:33;11.10;49.90
9544;DHT22;30418;51.45933468;7.33152330;2023-04-20T06:59:02;11.10;49.40
9544;DHT22;30418;51.45933468;7.33152330;2023-04-20T07:01:30;11.00;49.40
9544;DHT22;30418;51.45933468;7.33152330;2023-04-20T07:03:59;11.10;49.60
9544;DHT22;30418;51.45933468;7.33152330;2023-04-20T07:06:28;11.10;49.70
9544;DHT22;30418;51.45933468;7.33152330;2023-04-20T07:08:58;11.10;49.80
9544;DHT22;30418;51.45933468;7.33152330;2023-04-20T07:11:26;11.10;49.90
9544;DHT22;30418;51.45933468;7.33152330;2023-04-20T07:13:56;11.20;50.00
9544;DHT22;30418;51.45933468;7.33152330;2023-04-20T07:16:25;11.20;50.10
9544;DHT22;30418;51.45933468;7.33152330;2023-04-20T07:18:55;11.20;49.90
9544;DHT22;30418;51.45933468;7.33152330;2023-04-20T07:21:23;11.20;49.90
9544;DHT22;30418;51.45933468;7.33152330;2023-04-20T07:23:53;11.20;50.00
9544;DHT22;30418;51.45933468;7.33152330;2023-04-20T07:26:22;11.20;50.10
9544;DHT22;30418;51.45933468;7.33152330;2023-04-20T07:28:51;11.20;50.10
9544;DHT22;30418;51.45933468;7.33152330;2023-04-20T07:31:21;11.20;50.10
9544;DHT22;30418;51.45933468;7.33152330;2023-04-20T07:33:50;11.20;50.20
9544;DHT22;30418;51.45933468;7.33152330;2023-04-20T07:36:18;11.30;50.20
9544;DHT22;30418;51.45933468;7.33152330;2023-04-20T07:38:48;11.20;50.10
9544;DHT22;30418;51.45933468;7.33152330;2023-04-20T07:41:17;11.30;50.30
9544;DHT22;30418;51.45933468;7.33152330;2023-04-20T07:43:45;11.30;50.30
9544;DHT22;30418;51.45933468;7.33152330;2023-04-20T07:46:20;11.20;50.20
9544;DHT22;30418;51.45933468;7.33152330;2023-04-20T07:48:49;11.20;50.40
9544;DHT22;30418;51.45933468;7.33152330;2023-04-20T07:51:17;11.20;50.30
9544;DHT22;30418;51.45933468;7.33152330;2023-04-20T07:53:46;11.20;50.30
9544;DHT22;30418;51.45933468;7.33152330;2023-04-20T07:56:15;11.10;50.20
9544;DHT22;30418;51.45933468;7.33152330;2023-04-20T07:58:43;11.10;50.30
9544;DHT22;30418;51.45933468;7.33152330;2023-04-20T08:01:11;11.10;50.30
9544;DHT22;30418;51.45933468;7.33152330;2023-04-20T08:03:41;11.10;50.50
9544;DHT22;30418;51.45933468;7.33152330;2023-04-20T08:06:12;11.10;50.60
9544;DHT22;30418;51.45933468;7.33152330;2023-04-20T08:08:41;11.10;50.60
9544;DHT22;30418;51.45933468;7.33152330;2023-04-20T08:11:09;11.10;50.60
9544;DHT22;30418;51.45933468;7.33152330;2023-04-20T08:13:39;11.10;50.60
9544;DHT22;30418;51.45933468;7.33152330;2023-04-20T08:16:08;11.10;50.70
9544;DHT22;30418;51.45933468;7.33152330;2023-04-20T08:18:36;11.10;50.90
9544;DHT22;30418;51.45933468;7.33152330;2023-04-20T08:21:06;11.10;50.80
9544;DHT22;30418;51.45933468;7.33152330;2023-04-20T08:23:35;11.10;50.90
9544;DHT22;30418;51.45933468;7.33152330;2023-04-20T08:26:03;11.10;50.70
9544;DHT22;30418;51.45933468;7.33152330;2023-04-20T08:28:32;11.10;50.80
9544;DHT22;30418;51.45933468;7.33152330;2023-04-20T08:31:00;11.10;50.80
9544;DHT22;30418;51.45933468;7.33152330;2023-04-20T08:33:29;11.10;51.10
9544;DHT22;30418;51.45933468;7.33152330;2023-04-20T08:35:58;11.10;51.20
9544;DHT22;30418;51.45933468;7.33152330;2023-04-20T08:38:29;11.10;51.40
9544;DHT22;30418;51.45933468;7.33152330;2023-04-20T08:41:01;11.00;51.50
9544;DHT22;30418;51.45933468;7.33152330;2023-04-20T08:43:30;11.10;51.80
9544;DHT22;30418;51.45933468;7.33152330;2023-04-20T08:46:00;11.10;51.90
9544;DHT22;30418;51.45933468;7.33152330;2023-04-20T08:48:31;11.10;52.10
9544;DHT22;30418;51.45933468;7.33152330;2023-04-20T08:51:02;11.10;52.30
9544;DHT22;30418;51.45933468;7.33152330;2023-04-20T08:53:33;11.20;52.80
9544;DHT22;30418;51.45933468;7.33152330;2023-04-20T08:56:02;11.30;52.80
9544;DHT22;30418;51.45933468;7.33152330;2023-04-20T08:58:31;11.40;52.70
9544;DHT22;30418;51.45933468;7.33152330;2023-04-20T09:01:00;11.50;52.60
9544;DHT22;30418;51.45933468;7.33152330;2023-04-20T09:03:33;11.50;52.40
9544;DHT22;30418;51.45933468;7.33152330;2023-04-20T09:06:03;11.60;52.60
9544;DHT22;30418;51.45933468;7.33152330;2023-04-20T09:08:36;11.60;52.20
9544;DHT22;30418;51.45933468;7.33152330;2023-04-20T09:11:05;11.70;52.30
9544;DHT22;30418;51.45933468;7.33152330;2023-04-20T09:13:34;11.70;52.20
9544;DHT22;30418;51.45933468;7.33152330;2023-04-20T09:16:09;11.70;52.00
9544;DHT22;30418;51.45933468;7.33152330;2023-04-20T09:18:38;11.80;52.20
9544;DHT22;30418;51.45933468;7.33152330;2023-04-20T09:21:07;11.80;52.00
9544;DHT22;30418;51.45933468;7.33152330;2023-04-20T09:23:39;11.80;51.90
9544;DHT22;30418;51.45933468;7.33152330;2023-04-20T09:26:16;11.80;51.80
9544;DHT22;30418;51.45933468;7.33152330;2023-04-20T09:28:45;11.80;52.00
9544;DHT22;30418;51.45933468;7.33152330;2023-04-20T09:31:19;11.80;51.80
9544;DHT22;30418;51.45933468;7.33152330;2023-04-20T09:33:56;11.80;52.00
9544;DHT22;30418;51.45933468;7.33152330;2023-04-20T09:36:38;11.80;52.40
9544;DHT22;30418;51.45933468;7.33152330;2023-04-20T09:39:11;11.90;52.50
9544;DHT22;30418;51.45933468;7.33152330;2023-04-20T09:41:42;11.90;52.40
9544;DHT22;30418;51.45933468;7.33152330;2023-04-20T09:44:11;11.90;52.40
9544;DHT22;30418;51.45933468;7.33152330;2023-04-20T09:46:42;12.00;52.30
9544;DHT22;30418;51.45933468;7.33152330;2023-04-20T09:49:12;12.00;52.40
9544;DHT22;30418;51.45933468;7.33152330;2023-04-20T09:51:42;12.00;52.40
9544;DHT22;30418;51.45933468;7.33152330;2023-04-20T09:54:13;11.90;52.40
9544;DHT22;30418;51.45933468;7.33152330;2023-04-20T09:56:43;12.00;52.80
9544;DHT22;30418;51.45933468;7.33152330;2023-04-20T09:59:13;12.00;53.10
9544;DHT22;30418;51.45933468;7.33152330;2023-04-20T10:01:41;12.10;53.50
9544;DHT22;30418;51.45933468;7.33152330;2023-04-20T10:04:10;12.10;53.50
9544;DHT22;30418;51.45933468;7.33152330;2023-04-20T10:06:51;12.20;53.60
9544;DHT22;30418;51.45933468;7.33152330;2023-04-20T10:09:23;12.20;53.60
9544;DHT22;30418;51.45933468;7.33152330;2023-04-20T10:12:04;12.30;53.50
9544;DHT22;30418;51.45933468;7.33152330;2023-04-20T10:14:34;12.30;53.90
9544;DHT22;30418;51.45933468;7.33152330;2023-04-20T10:17:04;12.40;53.80
9544;DHT22;30418;51.45933468;7.33152330;2023-04-20T10:19:39;12.40;53.70
9544;DHT22;30418;51.45933468;7.33152330;2023-04-20T10:22:09;12.50;53.80
9544;DHT22;30418;51.45933468;7.33152330;2023-04-20T10:24:41;12.50;53.50
9544;DHT22;30418;51.45933468;7.33152330;2023-04-20T10:27:16;12.50;53.40
9544;DHT22;30418;51.45933468;7.33152330;2023-04-20T10:29:45;12.60;53.60
9544;DHT22;30418;51.45933468;7.33152330;2023-04-20T10:32:21;12.60;53.20
9544;DHT22;30418;51.45933468;7.33152330;2023-04-20T10:35:01;12.60;53.10
9544;DHT22;30418;51.45933468;7.33152330;2023-04-20T10:37:32;12.60;53.10
9544;DHT22;30418;51.45933468;7.33152330;2023-04-20T10:40:03;12.60;52.90
9544;DHT22;30418;51.45933468;7.33152330;2023-04-20T10:42:41;12.60;53.10
9544;DHT22;30418;51.45933468;7.33152330;2023-04-20T10:45:11;12.60;53.20
9544;DHT22;30418;51.45933468;7.33152330;2023-04-20T10:47:39;12.60;52.80
9544;DHT22;30418;51.45933468;7.33152330;2023-04-20T10:50:10;12.60;52.40
9544;DHT22;30418;51.45933468;7.33152330;2023-04-20T10:52:40;12.60;52.40
9544;DHT22;30418;51.45933468;7.33152330;2023-04-20T10:55:19;12.60;52.40
9544;DHT22;30418;51.45933468;7.33152330;2023-04-20T10:57:49;12.60;52.50
9544;DHT22;30418;51.45933468;7.33152330;2023-04-20T11:00:19;12.60;52.40
9544;DHT22;30418;51.45933468;7.33152330;2023-04-20T11:02:51;12.60;52.60
9544;DHT22;30418;51.45933468;7.33152330;2023-04-20T11:05:22;12.70;52.70
9544;DHT22;30418;51.45933468;7.33152330;2023-04-20T11:07:53;12.70;52.60
9544;DHT22;30418;51.45933468;7.33152330;2023-04-20T11:10:35;12.70;52.60
9544;DHT22;30418;51.45933468;7.33152330;2023-04-20T11:13:06;12.70;52.80
9544;DHT22;30418;51.45933468;7.33152330;2023-04-20T11:15:34;12.70;52.70
9544;DHT22;30418;51.45933468;7.33152330;2023-04-20T11:18:08;12.80;52.90
9544;DHT22;30418;51.45933468;7.33152330;2023-04-20T11:20:48;12.90;53.30
9544;DHT22;30418;51.45933468;7.33152330;2023-04-20T11:23:18;13.00;53.10
9544;DHT22;30418;51.45933468;7.33152330;2023-04-20T11:25:50;13.10;52.80
9544;DHT22;30418;51.45933468;7.33152330;2023-04-20T11:28:19;13.20;52.70
9544;DHT22;30418;51.45933468;7.33152330;2023-04-20T11:30:49;13.30;52.40
9544;DHT22;30418;51.45933468;7.33152330;2023-04-20T11:33:24;13.40;52.10
9544;DHT22;30418;51.45933468;7.33152330;2023-04-20T11:35:56;13.40;51.70
9544;DHT22;30418;51.45933468;7.33152330;2023-04-20T11:38:29;13.50;51.60
9544;DHT22;30418;51.45933468;7.33152330;2023-04-20T11:40:59;13.50;51.60
9544;DHT22;30418;51.45933468;7.33152330;2023-04-20T11:43:33;13.50;51.30
9544;DHT22;30418;51.45933468;7.33152330;2023-04-20T11:46:02;13.60;51.40
9544;DHT22;30418;51.45933468;7.33152330;2023-04-20T11:48:31;13.60;51.20
9544;DHT22;30418;51.45933468;7.33152330;2023-04-20T11:50:59;13.60;51.20
9544;DHT22;30418;51.45933468;7.33152330;2023-04-20T11:53:28;13.70;51.30
9544;DHT22;30418;51.45933468;7.33152330;2023-04-20T11:55:56;13.70;51.00
9544;DHT22;30418;51.45933468;7.33152330;2023-04-20T11:58:26;13.80;50.70
9544;DHT22;30418;51.45933468;7.33152330;2023-04-20T12:00:55;13.80;50.50
9544;DHT22;30418;51.45933468;7.33152330;2023-04-20T12:03:23;13.80;50.40
9544;DHT22;30418;51.45933468;7.33152330;2023-04-20T12:05:52;13.80;50.40
9544;DHT22;30418;51.45933468;7.33152330;2023-04-20T12:08:21;13.80;50.30
9544;DHT22;30418;51.45933468;7.33152330;2023-04-20T12:10:50;13.80;50.20
9544;DHT22;30418;51.45933468;7.33152330;2023-04-20T12:13:19;13.80;50.10
9544;DHT22;30418;51.45933468;7.33152330;2023-04-20T12:15:49;13.80;50.10
9544;DHT22;30418;51.45933468;7.33152330;2023-04-20T12:18:17;13.80;50.10
9544;DHT22;30418;51.45933468;7.33152330;2023-04-20T12:20:46;13.80;50.20
9544;DHT22;30418;51.45933468;7.33152330;2023-04-20T12:23:16;13.90;50.10
9544;DHT22;30418;51.45933468;7.33152330;2023-04-20T12:25:44;13.90;50.10
9544;DHT22;30418;51.45933468;7.33152330;2023-04-20T12:28:13;13.90;50.00
9544;DHT22;30418;51.45933468;7.33152330;2023-04-20T12:30:41;13.90;49.40
9544;DHT22;30418;51.45933468;7.33152330;2023-04-20T12:33:11;14.00;49.20
9544;DHT22;30418;51.45933468;7.33152330;2023-04-20T12:35:40;14.00;49.30
9544;DHT22;30418;51.45933468;7.33152330;2023-04-20T12:38:09;14.00;49.20
9544;DHT22;30418;51.45933468;7.33152330;2023-04-20T12:40:40;14.00;49.10
9544;DHT22;30418;51.45933468;7.33152330;2023-04-20T12:43:09;14.00;49.00
9544;DHT22;30418;51.45933468;7.33152330;2023-04-20T12:45:37;14.10;48.90
9544;DHT22;30418;51.45933468;7.33152330;2023-04-20T12:48:06;14.10;48.80
9544;DHT22;30418;51.45933468;7.33152330;2023-04-20T12:50:36;14.10;48.40
9544;DHT22;30418;51.45933468;7.33152330;2023-04-20T12:53:05;14.10;48.10
9544;DHT22;30418;51.45933468;7.33152330;2023-04-20T12:55:34;14.10;48.20
9544;DHT22;30418;51.45933468;7.33152330;2023-04-20T12:58:02;14.00;48.10
9544;DHT22;30418;51.45933468;7.33152330;2023-04-20T13:00:31;14.00;48.10
9544;DHT22;30418;51.45933468;7.33152330;2023-04-20T13:03:00;14.10;48.20
9544;DHT22;30418;51.45933468;7.33152330;2023-04-20T13:05:29;14.10;48.60
9544;DHT22;30418;51.45933468;7.33152330;2023-04-20T13:07:59;14.10;48.60
9544;DHT22;30418;51.45933468;7.33152330;2023-04-20T13:10:28;14.20;48.70
9544;DHT22;30418;51.45933468;7.33152330;2023-04-20T13:12:57;14.20;48.70
9544;DHT22;30418;51.45933468;7.33152330;2023-04-20T13:15:26;14.30;48.70
9544;DHT22;30418;51.45933468;7.33152330;2023-04-20T13:18:05;14.30;48.50
9544;DHT22;30418;51.45933468;7.33152330;2023-04-20T13:20:35;14.40;48.60
9544;DHT22;30418;51.45933468;7.33152330;2023-04-20T13:23:05;14.40;48.60
9544;DHT22;30418;51.45933468;7.33152330;2023-04-20T13:25:34;14.40;48.10
9544;DHT22;30418;51.45933468;7.33152330;2023-04-20T13:28:04;14.40;48.00
9544;DHT22;30418;51.45933468;7.33152330;2023-04-20T13:30:33;14.40;48.00
9544;DHT22;30418;51.45933468;7.33152330;2023-04-20T13:33:02;14.40;47.80
9544;DHT22;30418;51.45933468;7.33152330;2023-04-20T13:35:31;14.30;47.60
9544;DHT22;30418;51.45933468;7.33152330;2023-04-20T13:38:00;14.30;47.50
9544;DHT22;30418;51.45933468;7.33152330;2023-04-20T13:40:29;14.20;47.30
9544;DHT22;30418;51.45933468;7.33152330;2023-04-20T13:42:58;14.20;47.30
9544;DHT22;30418;51.45933468;7.33152330;2023-04-20T13:45:27;14.20;47.50
9544;DHT22;30418;51.45933468;7.33152330;2023-04-20T13:47:56;14.20;47.70
9544;DHT22;30418;51.45933468;7.33152330;2023-04-20T13:50:25;14.20;47.80